• Join FlightAware (Why Join?)
  • Login
  • US Flag 
04:37PM EDT


 

Airport Tracker/Info


-or-


 

Live Flight TrackerFlight Track Log ✈ CCA4394 ✈ 26-Oct-2013 ✈ ZGGG / CAN - ZUJZ / JZH

Flight Track Log - Related Links

Times and Time Zones

All times are in EDT time to prevent confusion due to time zone crossing. See the CCA4394 flight status page for this flight to view local times or setup timezone preferences in your user account.

Time Position Orientation Groundspeed Altitude Reporting Facility
EDT Latitude Longitude Course Direction KTS MPH feet Rate Location/Type
04:33AM 23.4360 113.2940 355° North 166 191 2,600  Level FlightAware
04:34AM 23.4700 113.2910 355° North 198 228 3,900 1,740 Climbing FlightAware
04:35AM 23.5080 113.2870 354° North 247 284 4,900 1,860 Climbing FlightAware
04:35AM 23.5500 113.2760 346° North 278 320 6,200 1,980 Climbing FlightAware
04:36AM 23.5860 113.2650 344° North 281 323 7,000 2,520 Climbing FlightAware
04:36AM 23.6310 113.2530 346° North 285 328 8,900 3,060 Climbing FlightAware
04:37AM 23.6690 113.2440 348° North 294 338 10,300 1,980 Climbing FlightAware
04:38AM 23.7330 113.2620 14° North 340 391 11,400 2,160 Climbing FlightAware
04:38AM 23.7960 113.2840 18° North 346 398 13,400 2,520 Climbing FlightAware
04:39AM 23.8500 113.3020 17° North 359 413 14,600 1,980 Climbing FlightAware
04:40AM 23.9480 113.3330 16° North 375 432 16,600 2,100 Climbing FlightAware
04:41AM 24.0220 113.3360 North 374 430 18,200 1,740 Climbing FlightAware
04:41AM 24.0850 113.3260 352° North 395 455 18,900 1,260 Climbing FlightAware
04:42AM 24.1500 113.3270 North 414 476 19,700 1,680 Climbing FlightAware
04:43AM 24.2450 113.3230 358° North 406 467 21,300 1,800 Climbing FlightAware
04:43AM 24.2990 113.2890 330° Northwest 394 453 22,300 1,680 Climbing FlightAware
04:44AM 24.3280 113.2400 303° West 386 444 23,100 1,320 Climbing FlightAware
04:44AM 24.3400 113.1690 281° West 390 449 23,800 1,320 Climbing FlightAware
04:45AM 24.3500 113.0930 278° West 393 452 24,800 1,320 Climbing FlightAware
04:45AM 24.3560 113.0480 278° West 396 456 25,200 1,440 Climbing FlightAware
04:46AM 24.3720 112.9200 278° West 397 457 26,900 1,440 Climbing FlightAware
04:47AM 24.3820 112.8480 279° West 401 461 27,600 480 Climbing FlightAware
04:48AM 24.3940 112.7510 278° West 400 460 27,600  Level FlightAware
04:48AM 24.3980 112.7230 279° West 399 459 27,600  Level FlightAware
04:49AM 24.4100 112.6340 278° West 397 457 27,600  Level FlightAware
04:50AM 24.4210 112.5480 278° West 401 461 27,600  Level FlightAware
04:50AM 24.4310 112.4640 277° West 376 433 27,600  Level FlightAware
04:51AM 24.4420 112.3830 279° West 371 427 27,600  Level FlightAware
04:52AM 24.4490 112.3250 278° West 372 428 27,600  Level FlightAware
04:52AM 24.4560 112.2680 278° West 372 428 27,600  Level FlightAware
04:53AM 24.4700 112.1570 278° West 383 441 27,600  Level FlightAware
04:53AM 24.4770 112.1040 278° West 375 432 27,600  Level FlightAware
04:54AM 24.4840 112.0490 278° West 373 429 27,600  Level FlightAware
04:55AM 24.4970 111.9480 278° West 380 437 27,600  Level FlightAware
04:55AM 24.5060 111.8760 278° West 384 442 27,600  Level FlightAware
04:56AM 24.5150 111.8010 278° West 375 432 27,600  Level FlightAware
04:57AM 24.5220 111.7420 277° West 381 438 27,600  Level FlightAware
04:57AM 24.5270 111.7040 278° West 382 440 27,600  Level FlightAware
04:58AM 24.5660 111.6090 294° West 392 451 27,600  Level FlightAware
04:58AM 24.6060 111.5810 328° Northwest 401 461 27,600  Level FlightAware
04:59AM 24.6760 111.5150 319° Northwest 406 467 27,600  Level FlightAware
05:00AM 24.7080 111.4670 306° West 405 466 27,600  Level FlightAware
05:00AM 24.7530 111.3950 305° West 405 466 27,600  Level FlightAware
05:01AM 24.8280 111.2720 304° West 409 471 27,600  Level FlightAware
05:02AM 24.8510 111.2350 304° West 406 467 27,600  Level FlightAware
05:03AM 24.9120 111.1350 304° West 409 471 27,600  Level FlightAware
05:03AM 24.9480 111.0780 305° West 408 470 27,600  Level FlightAware
05:04AM 24.9830 111.0190 303° West 408 470 27,600  Level FlightAware
05:05AM 25.0270 110.9470 304° West 408 470 27,600  Level FlightAware
05:05AM 25.0600 110.8950 305° West 408 470 27,600  Level FlightAware
05:06AM 25.0810 110.8590 303° West 408 470 27,600  Level FlightAware
05:07AM 25.1250 110.7870 304° West 408 470 27,600  Level FlightAware
05:07AM 25.1470 110.7520 305° West 408 470 27,600  Level FlightAware
05:07AM 25.1570 110.7340 302° West 408 470 27,600  Level FlightAware
05:11AM 25.3974 110.5331 323° Northwest  Level Estimated
05:12AM 25.4703 110.4721 323° Northwest  Level Estimated
05:13AM 25.5430 110.4109 323° Northwest  Level Estimated
05:14AM 25.6158 110.3497 323° Northwest  Level Estimated
05:15AM 25.6885 110.2885 323° Northwest  Level Estimated
05:16AM 25.7612 110.2271 323° Northwest  Level Estimated
05:17AM 25.8339 110.1657 323° Northwest  Level Estimated
05:18AM 25.9066 110.1042 323° Northwest  Level Estimated
05:19AM 25.9792 110.0427 323° Northwest  Level Estimated
05:20AM 26.0518 109.9810 323° Northwest  Level Estimated
05:21AM 26.1244 109.9193 323° Northwest  Level Estimated
05:22AM 26.1969 109.8575 323° Northwest  Level Estimated
05:23AM 26.2695 109.7957 323° Northwest  Level Estimated
05:24AM 26.3420 109.7337 323° Northwest  Level Estimated
05:25AM 26.4144 109.6717 323° Northwest  Level Estimated
05:26AM 26.4869 109.6096 323° Northwest  Level Estimated
05:27AM 26.5593 109.5474 322° Northwest  Level Estimated
05:28AM 26.6317 109.4852 322° Northwest  Level Estimated
05:29AM 26.7040 109.4228 322° Northwest  Level Estimated
05:30AM 26.7764 109.3604 322° Northwest  Level Estimated
05:31AM 26.8487 109.2979 322° Northwest  Level Estimated
05:32AM 26.9210 109.2353 322° Northwest  Level Estimated
05:33AM 26.9932 109.1727 322° Northwest  Level Estimated
05:34AM 27.0655 109.1099 322° Northwest  Level Estimated
05:35AM 27.1376 109.0471 322° Northwest  Level Estimated
05:36AM 27.2098 108.9842 322° Northwest  Level Estimated
05:37AM 27.2820 108.9212 322° Northwest  Level Estimated
05:38AM 27.3541 108.8581 322° Northwest  Level Estimated
05:39AM 27.4262 108.7950 322° Northwest  Level Estimated
05:40AM 27.4982 108.7318 322° Northwest  Level Estimated
05:41AM 27.5702 108.6685 322° Northwest  Level Estimated
05:42AM 27.6423 108.6051 322° Northwest  Level Estimated
05:43AM 27.7142 108.5416 322° Northwest  Level Estimated
05:44AM 27.7862 108.4780 322° Northwest  Level Estimated
05:45AM 27.8581 108.4144 322° Northwest  Level Estimated
05:46AM 27.9300 108.3506 322° Northwest  Level Estimated
05:47AM 28.0018 108.2868 322° Northwest  Level Estimated
05:48AM 28.0736 108.2229 322° Northwest  Level Estimated
05:49AM 28.1454 108.1589 322° Northwest  Level Estimated
05:50AM 28.2172 108.0949 322° Northwest  Level Estimated
05:51AM 28.2889 108.0307 322° Northwest  Level Estimated
05:52AM 28.3606 107.9665 322° Northwest  Level Estimated
05:53AM 28.4323 107.9021 322° Northwest  Level Estimated
05:54AM 28.5040 107.8377 322° Northwest  Level Estimated
05:55AM 28.5756 107.7732 322° Northwest  Level Estimated
05:56AM 28.6472 107.7086 322° Northwest  Level Estimated
05:57AM 28.7187 107.6439 322° Northwest  Level Estimated
05:58AM 28.7902 107.5792 322° Northwest  Level Estimated
05:59AM 28.8617 107.5143 322° Northwest  Level Estimated
06:00AM 28.9332 107.4494 322° Northwest  Level Estimated
06:01AM 29.0046 107.3843 321° Northwest  Level Estimated
06:02AM 29.0760 107.3192 321° Northwest  Level Estimated
06:03AM 29.1474 107.2540 321° Northwest  Level Estimated
06:04AM 29.2187 107.1887 321° Northwest  Level Estimated
06:05AM 29.2900 107.1233 321° Northwest  Level Estimated
06:06AM 29.3613 107.0578 321° Northwest  Level Estimated
06:07AM 29.4325 106.9922 321° Northwest  Level Estimated
06:08AM 29.5037 106.9265 321° Northwest  Level Estimated
06:09AM 29.5749 106.8607 321° Northwest  Level Estimated
06:10AM 29.6460 106.7949 321° Northwest  Level Estimated
06:11AM 29.7171 106.7289 321° Northwest  Level Estimated
06:12AM 29.7882 106.6629 321° Northwest  Level Estimated
06:13AM 29.8593 106.5967 321° Northwest  Level Estimated
06:14AM 29.9303 106.5305 321° Northwest  Level Estimated
06:15AM 30.0012 106.4642 321° Northwest  Level Estimated
06:16AM 30.0722 106.3978 321° Northwest  Level Estimated
06:16AM 29.9840 104.7900 321° Northwest 431 496 27,600  Level FlightAware
06:17AM 30.1431 106.3312 321° Northwest  Level Estimated
06:17AM 30.0320 104.7710 341° North 430 495 27,600  Level FlightAware
06:18AM 30.1800 104.7130 341° North 431 496 27,600 -60 Level FlightAware
06:19AM 30.2640 104.6820 342° North 431 496 27,500 -540 Descending FlightAware
06:19AM 30.3430 104.6530 342° North 434 499 26,900 -1,020 Descending FlightAware
06:20AM 30.4660 104.6060 342° North 427 491 25,800 -840 Descending FlightAware
06:21AM 30.5290 104.5820 342° North 420 483 25,600 -180 Descending FlightAware
06:22AM 30.5930 104.5510 337° Northwest 409 471 25,600  Level FlightAware
06:22AM 30.6740 104.5030 333° Northwest 410 472 25,600  Level FlightAware
06:23AM 30.7210 104.4760 334° Northwest 414 476 25,600  Level FlightAware
06:23AM 30.7840 104.4400 334° Northwest 416 479 25,600  Level FlightAware
06:24AM 30.8460 104.4120 339° North 418 481 25,600  Level FlightAware
06:25AM 30.9220 104.3910 347° North 428 493 25,600  Level FlightAware
06:25AM 30.9970 104.3830 355° North 435 501 25,600  Level FlightAware
06:26AM 31.0600 104.3810 358° North 433 498 25,600  Level FlightAware
06:27AM 31.1570 104.3780 358° North 427 491 25,600  Level FlightAware
06:27AM 31.2590 104.3740 358° North 423 487 25,600  Level FlightAware
06:28AM 31.3270 104.3710 358° North 419 482 25,600  Level FlightAware
06:29AM 31.4150 104.3670 358° North 425 489 25,600  Level FlightAware
06:30AM 31.4990 104.3630 358° North 426 490 25,600  Level FlightAware
06:30AM 31.5860 104.3590 358° North 425 489 25,600 -180 Level FlightAware
06:31AM 31.6710 104.3540 357° North 422 486 25,400 -600 Descending FlightAware
06:32AM 31.7610 104.3500 358° North 424 488 24,700 -1,020 Descending FlightAware
06:32AM 31.8390 104.3460 358° North 418 481 24,000 -900 Descending FlightAware
06:33AM 31.9050 104.3420 357° North 411 473 23,600 -360 Descending FlightAware
06:34AM 31.9670 104.3390 358° North 412 474 23,600  Level FlightAware
06:34AM 32.0460 104.3350 358° North 415 478 23,600  Level FlightAware
06:35AM 32.1390 104.3300 357° North 417 480 23,600  Level FlightAware
06:36AM 32.2080 104.3270 358° North 415 478 23,600  Level FlightAware
06:36AM 32.2920 104.3220 357° North 403 464 23,600  Level FlightAware
06:37AM 32.3710 104.3180 358° North 373 429 23,600 -360 Level FlightAware
06:38AM 32.4350 104.3130 356° North 342 394 23,100 -960 Descending FlightAware
06:38AM 32.4800 104.2950 341° North 329 379 22,500 -720 Descending FlightAware
06:39AM 32.5380 104.2420 322° Northwest 324 373 22,100 -240 Descending FlightAware
06:40AM 32.5840 104.1940 319° Northwest 324 373 22,100  Level FlightAware
06:41AM 32.6200 104.1570 319° Northwest 324 373 22,100  Level FlightAware
06:41AM 32.6660 104.1100 319° Northwest 324 373 22,100  Level FlightAware
06:42AM 32.7010 104.0740 319° Northwest 324 373 22,100  Level FlightAware
06:43AM 32.7350 104.0380 318° Northwest 324 373 22,100  Level FlightAware
06:45AM 32.8002 103.8487 292° West  Level Estimated
06:46AM 32.8347 103.7481 292° West  Level Estimated
06:47AM 32.8570 103.6830 292° West  Level Estimated
06:48AM 32.8570 103.6830 North  Level Estimated
06:49AM 32.8570 103.6830 North  Level Estimated
06:50AM 32.8570 103.6830 North  Level Estimated
06:51AM 32.8570 103.6830 North  Level Estimated
06:52AM 32.8570 103.6830 North  Level Estimated
06:53AM 32.8570 103.6830 North  Level Estimated